Terminal Aerodrome Forecast
Issued by NWS

Home | Current Version | Previous Version | Text Only | Print | Product List | Glossary On
Versions: 1 2 3 4 5 6 7 8 9 10 11 12 13 14 15 16 17 18
000
FTUS43 KLSX 221700
TAFCPS
TAF
KCPS 221734Z 2218/2318 35005KT P6SM BKN020
     FM230000 VRB03KT P6SM OVC020
     FM231700 28005KT P6SM SCT030=

USA.gov is the U.S. government's official web portal to all federal, state and local government web resources and services.